Accueil
METAR-TAF:

METAR-TAF

Aéroports :

Millinocket, Maine, États-Unis

Millinocket Municipal Airport

latitude: 45-38-52N, longitude: 068-41-31W, altitude: 124 m

Observation

Le bulletin a été fait il y a 19 minutes, à 03:53 UTC
Vent 5 kt de sud
Température -2°C
Humidité 93%
Pression 1016 hPa
Visibilité: 8.0 km
Ciel couvert à une hauteur de 700 ft
brume

METAR: KMLT 240353Z AUTO 17005KT 5SM BR OVC007 M02/M03 A3000 RMK AO2 SNB0257E08 PRESFR SLP168 P0000 T10221028

Heure: 23:12 (04:12 UTC)


TAF: absent

Observations et prévisions météorologiques de plus de 4000 aéroports (messages METAR et TAF).

Les stations disponibles sont représentées par des disques jaunes et rouges sur la carte.

Passer la souris dessus pour voir le nom de la station.

Cliquer dessus pour voir les observations et prévisions météorologiques.

Pour changer de carte: cliquez sur les boutons verts avec une croix noire pour zoomer, sur le bouton vert avec un tiret pour effectuer un zoom arrière, ou sur les flèches vertes pour les cartes adjacentes.


METAR-TAF: